createdAt,value
2022-08-17T00:02:05.818Z,46.80
2022-08-17T00:04:50.568Z,46.67
2022-08-17T00:07:17.356Z,47.13
2022-08-17T00:09:43.877Z,49.03
2022-08-17T00:12:43.513Z,46.57
2022-08-17T00:14:57.312Z,53.07
2022-08-17T00:17:23.977Z,51.23
2022-08-17T00:19:50.517Z,52.17
2022-08-17T00:22:32.379Z,47.63
2022-08-17T00:25:03.010Z,47.90
2022-08-17T00:27:29.587Z,50.43
2022-08-17T00:29:56.133Z,50.10
2022-08-17T00:33:11.582Z,49.67
2022-08-17T00:35:11.180Z,44.90
2022-08-17T00:37:37.739Z,46.67
2022-08-17T00:40:05.254Z,47.73
2022-08-17T00:42:31.960Z,45.60
2022-08-17T00:44:59.374Z,43.73
2022-08-17T00:47:26.173Z,44.47
2022-08-17T00:49:53.168Z,44.50
2022-08-17T00:52:24.804Z,42.23
2022-08-17T00:54:54.839Z,42.33
2022-08-17T00:57:24.739Z,41.63
2022-08-17T01:00:02.235Z,43.07
2022-08-17T01:02:34.363Z,44.50
2022-08-17T01:05:07.663Z,44.00
2022-08-17T01:07:34.665Z,44.50
2022-08-17T01:10:07.568Z,46.20
2022-08-17T01:12:54.342Z,46.23
2022-08-17T01:15:20.904Z,43.83
2022-08-17T01:17:48.163Z,43.37
2022-08-17T01:20:15.099Z,44.90
2022-08-17T01:22:41.706Z,46.13
2022-08-17T01:25:09.045Z,45.17
2022-08-17T01:27:37.046Z,48.43
2022-08-17T01:30:57.718Z,47.10
2022-08-17T01:32:54.130Z,51.47
2022-08-17T01:35:20.680Z,50.27
2022-08-17T01:37:47.260Z,50.00
2022-08-17T01:40:46.412Z,47.07
2022-08-17T01:43:22.707Z,45.53
2022-08-17T01:46:03.731Z,52.67
2022-08-17T01:48:36.546Z,51.50
2022-08-17T01:51:07.185Z,52.13
2022-08-17T01:53:42.369Z,50.07
2022-08-17T01:56:14.450Z,48.73
2022-08-17T01:58:42.021Z,46.17
2022-08-17T02:01:10.132Z,43.97
2022-08-17T02:03:38.006Z,43.60
2022-08-17T02:06:06.174Z,44.10
2022-08-17T02:09:02.362Z,42.07
2022-08-17T02:11:32.863Z,43.10
2022-08-17T02:14:03.301Z,42.30
2022-08-17T02:16:36.902Z,47.23
2022-08-17T02:19:10.217Z,45.70
2022-08-17T02:21:38.338Z,44.23
2022-08-17T02:24:08.808Z,46.83
2022-08-17T02:26:35.458Z,49.10
2022-08-17T02:29:02.164Z,49.07
2022-08-17T02:31:29.477Z,49.27
2022-08-17T02:33:56.618Z,48.43
2022-08-17T02:36:31.863Z,45.60
2022-08-17T02:38:58.745Z,45.80
2022-08-17T02:41:25.628Z,44.30
2022-08-17T02:43:53.199Z,42.70
2022-08-17T02:46:19.722Z,45.17
2022-08-17T02:48:46.323Z,44.87
2022-08-17T02:51:12.846Z,46.53
2022-08-17T02:53:39.396Z,46.13
2022-08-17T02:56:06.238Z,44.27
2022-08-17T02:58:35.471Z,44.87
2022-08-17T03:01:05.291Z,42.77
2022-08-17T03:03:32.502Z,44.30
2022-08-17T03:05:59.040Z,44.47
2022-08-17T03:08:25.653Z,43.83
2022-08-17T03:10:52.656Z,45.33
2022-08-17T03:13:20.160Z,54.27
2022-08-17T03:15:47.751Z,56.40
2022-08-17T03:18:24.274Z,53.20
2022-08-17T03:20:52.727Z,49.00
2022-08-17T03:23:24.098Z,47.77
2022-08-17T03:25:53.524Z,45.97
2022-08-17T03:28:21.553Z,44.03
2022-08-17T03:30:48.273Z,43.77
2022-08-17T03:33:15.007Z,44.53
2022-08-17T03:35:42.111Z,43.30
2022-08-17T03:38:15.934Z,42.27
2022-08-17T03:40:57.313Z,45.33
2022-08-17T03:43:30.558Z,43.57
2022-08-17T03:46:27.689Z,44.60
2022-08-17T03:49:18.719Z,43.37
2022-08-17T03:52:04.682Z,40.73
2022-08-17T03:54:49.964Z,41.27
2022-08-17T03:57:16.725Z,38.57
2022-08-17T03:59:44.883Z,39.27
2022-08-17T04:02:19.028Z,37.80
2022-08-17T04:04:45.580Z,38.67
2022-08-17T04:07:12.770Z,39.10
2022-08-17T04:09:39.461Z,38.70
2022-08-17T04:12:06.192Z,41.77
2022-08-17T04:14:50.819Z,38.33
2022-08-17T04:17:21.720Z,37.03
2022-08-17T04:19:48.456Z,37.60
2022-08-17T04:22:33.235Z,38.93
2022-08-17T04:25:16.821Z,38.57
2022-08-17T04:27:43.519Z,48.30
2022-08-17T04:30:10.779Z,46.70
2022-08-17T04:33:02.291Z,48.20
2022-08-17T04:35:37.014Z,49.63
2022-08-17T04:38:03.956Z,52.13
2022-08-17T04:40:49.078Z,51.23
2022-08-17T04:43:18.971Z,48.60
2022-08-17T04:45:55.772Z,47.00
2022-08-17T04:48:29.844Z,49.47
2022-08-17T04:51:03.388Z,49.43
2022-08-17T04:53:59.831Z,45.40
2022-08-17T04:56:28.344Z,43.97
2022-08-17T04:58:58.611Z,56.60
2022-08-17T05:01:28.147Z,56.83
2022-08-17T05:04:02.307Z,57.37
2022-08-17T05:06:48.204Z,60.97
2022-08-17T05:09:15.668Z,58.77
2022-08-17T05:11:44.957Z,61.37
2022-08-17T05:14:12.177Z,62.73
2022-08-17T05:16:38.747Z,64.37
2022-08-17T05:19:05.409Z,60.57
2022-08-17T05:21:32.019Z,61.50
2022-08-17T05:23:59.536Z,64.50
2022-08-17T05:26:29.339Z,68.97
2022-08-17T05:29:00.643Z,65.43
2022-08-17T05:31:30.542Z,65.07
2022-08-17T05:33:57.367Z,65.13
2022-08-17T05:36:42.442Z,64.27
2022-08-17T05:39:16.624Z,62.77
2022-08-17T05:41:45.463Z,56.43
2022-08-17T05:44:12.022Z,57.47
2022-08-17T05:46:44.114Z,55.10
2022-08-17T05:49:12.685Z,55.57
2022-08-17T05:51:47.097Z,53.63
2022-08-17T05:54:32.130Z,54.73
2022-08-17T05:57:28.155Z,56.80
2022-08-17T06:00:43.245Z,53.87
2022-08-17T06:03:09.794Z,56.73
2022-08-17T06:05:36.254Z,56.47
2022-08-17T06:08:10.275Z,55.53
2022-08-17T06:11:07.545Z,54.23
2022-08-17T06:14:02.520Z,52.90
2022-08-17T06:16:38.778Z,52.87
2022-08-17T06:19:33.773Z,51.70
2022-08-17T06:22:02.678Z,54.07
2022-08-17T06:24:35.267Z,56.03
2022-08-17T06:27:09.961Z,49.87
2022-08-17T06:29:54.691Z,47.43
2022-08-17T06:32:21.399Z,42.47
2022-08-17T06:34:48.138Z,46.23
2022-08-17T06:37:33.291Z,45.40
2022-08-17T06:40:17.974Z,47.13
2022-08-17T06:43:06.896Z,46.23
2022-08-17T06:45:49.276Z,46.37
2022-08-17T06:48:24.449Z,45.33
2022-08-17T06:51:02.899Z,44.40
2022-08-17T06:53:29.527Z,40.70
2022-08-17T06:56:03.255Z,44.57
2022-08-17T06:58:31.981Z,41.87
2022-08-17T07:01:26.810Z,44.43
2022-08-17T07:04:11.927Z,41.63
2022-08-17T07:06:52.327Z,41.80
2022-08-17T07:09:26.032Z,39.20
2022-08-17T07:11:58.176Z,40.90
2022-08-17T07:14:31.390Z,32.93
2022-08-17T07:17:01.567Z,32.07
2022-08-17T07:19:31.956Z,36.30
2022-08-17T07:22:14.246Z,34.60
2022-08-17T07:25:03.134Z,30.37
2022-08-17T07:27:38.375Z,33.07
2022-08-17T07:30:10.593Z,27.73
2022-08-17T07:32:50.932Z,24.13
2022-08-17T07:35:41.378Z,25.07
2022-08-17T07:38:35.488Z,25.47
2022-08-17T07:41:06.256Z,27.23
2022-08-17T07:43:39.979Z,22.03
2022-08-17T07:46:31.050Z,27.10
2022-08-17T07:48:58.909Z,24.83
2022-08-17T07:51:30.019Z,23.50
2022-08-17T07:54:13.898Z,21.47
2022-08-17T07:56:48.536Z,21.03
2022-08-17T07:59:18.227Z,17.30
2022-08-17T08:02:01.239Z,24.63
2022-08-17T08:05:00.127Z,24.50
2022-08-17T08:07:20.866Z,21.77
2022-08-17T08:10:20.558Z,24.60
2022-08-17T08:12:48.951Z,23.37
2022-08-17T08:15:33.428Z,19.20
2022-08-17T08:18:03.737Z,21.57
2022-08-17T08:20:51.147Z,22.10
2022-08-17T08:23:33.977Z,15.87
2022-08-17T08:26:08.025Z,19.20
2022-08-17T08:28:40.382Z,17.67
2022-08-17T08:31:19.456Z,16.60
2022-08-17T08:34:55.877Z,17.43
2022-08-17T08:37:35.600Z,14.90
2022-08-17T08:40:42.888Z,18.73
2022-08-17T08:43:27.135Z,14.73
2022-08-17T08:46:28.942Z,13.37
2022-08-17T08:50:02.150Z,15.63
2022-08-17T08:52:36.431Z,12.90
2022-08-17T08:55:18.491Z,14.17
2022-08-17T08:58:02.731Z,12.40
2022-08-17T09:00:35.829Z,12.60
2022-08-17T09:03:36.754Z,11.23
2022-08-17T09:06:57.913Z,14.63
2022-08-17T09:09:42.322Z,10.10
2022-08-17T09:12:21.257Z,11.17
2022-08-17T09:15:22.378Z,9.57
2022-08-17T09:19:02.527Z,8.90
2022-08-17T09:21:19.257Z,11.17
2022-08-17T09:24:12.799Z,10.00
2022-08-17T09:27:10.226Z,9.27
2022-08-17T09:29:40.703Z,9.50
2022-08-17T09:32:20.175Z,10.67
2022-08-17T09:34:53.617Z,7.27
2022-08-17T09:37:27.971Z,6.80
2022-08-17T09:40:14.824Z,7.50
2022-08-17T09:42:56.269Z,7.40
2022-08-17T09:45:57.233Z,7.90
2022-08-17T09:48:31.947Z,7.40
2022-08-17T09:51:08.439Z,7.63
2022-08-17T09:53:39.192Z,7.23
2022-08-17T09:56:16.262Z,7.80
2022-08-17T09:58:56.433Z,6.97
2022-08-17T10:01:31.329Z,8.40
2022-08-17T10:04:00.972Z,9.67
2022-08-17T10:06:33.648Z,7.57
2022-08-17T10:09:15.624Z,10.33
2022-08-17T10:12:04.997Z,6.27
2022-08-17T10:14:44.197Z,6.17
2022-08-17T10:17:44.810Z,8.30
2022-08-17T10:20:20.664Z,6.90
2022-08-17T10:23:15.125Z,6.67
2022-08-17T10:26:04.147Z,8.13
2022-08-17T10:28:40.903Z,6.53
2022-08-17T10:31:34.137Z,6.60
2022-08-17T10:34:25.324Z,8.17
2022-08-17T10:37:29.403Z,7.63
2022-08-17T10:40:31.124Z,5.97
2022-08-17T10:43:18.276Z,6.20
2022-08-17T10:45:51.471Z,6.03
2022-08-17T10:48:39.109Z,7.60
2022-08-17T10:51:29.755Z,6.37
2022-08-17T10:53:57.991Z,6.73
2022-08-17T10:56:38.407Z,6.13
2022-08-17T10:59:05.702Z,5.93
2022-08-17T11:01:32.231Z,6.77
2022-08-17T11:04:09.874Z,6.00
2022-08-17T11:06:41.939Z,6.07
2022-08-17T11:09:23.715Z,6.73
2022-08-17T11:12:25.763Z,6.60
2022-08-17T11:15:16.946Z,7.40
2022-08-17T11:18:08.840Z,5.97
2022-08-17T11:20:41.491Z,5.47
2022-08-17T11:23:38.752Z,7.23
2022-08-17T11:26:27.702Z,5.40
2022-08-17T11:29:00.022Z,7.53
2022-08-17T11:31:38.549Z,7.00
2022-08-17T11:34:13.383Z,6.47
2022-08-17T11:37:01.968Z,6.93
2022-08-17T11:39:34.557Z,7.60
2022-08-17T11:42:16.548Z,9.30
2022-08-17T11:45:09.639Z,7.33
2022-08-17T11:51:18.519Z,5.70
2022-08-17T11:54:14.729Z,5.93
2022-08-17T11:56:50.746Z,6.27
2022-08-17T11:59:46.028Z,5.47
2022-08-17T12:02:35.097Z,6.57
2022-08-17T12:05:27.238Z,6.63
2022-08-17T12:08:05.563Z,7.33
2022-08-17T12:10:35.511Z,5.80
2022-08-17T12:13:15.562Z,6.53
2022-08-17T12:15:48.818Z,6.37
2022-08-17T12:18:30.313Z,5.63
2022-08-17T12:21:37.932Z,5.90
2022-08-17T12:24:19.926Z,5.33
2022-08-17T12:26:53.539Z,6.43
2022-08-17T12:29:38.214Z,8.20
2022-08-17T12:32:07.055Z,6.83
2022-08-17T12:34:40.750Z,5.50
2022-08-17T12:37:24.898Z,7.30
2022-08-17T12:40:02.781Z,6.03
2022-08-17T12:42:34.778Z,5.50
2022-08-17T12:45:01.480Z,6.27
2022-08-17T12:47:30.069Z,5.20
2022-08-17T12:50:28.667Z,7.50
2022-08-17T12:53:01.719Z,6.87
2022-08-17T12:55:32.551Z,7.87
2022-08-17T12:58:01.892Z,5.53
2022-08-17T13:00:34.723Z,8.10
2022-08-17T13:03:19.159Z,8.03
2022-08-17T13:05:57.235Z,8.47
2022-08-17T13:08:45.504Z,5.37
2022-08-17T13:11:16.188Z,11.37
2022-08-17T13:13:46.452Z,10.50
2022-08-17T13:16:12.923Z,8.00
2022-08-17T13:18:44.164Z,7.80
2022-08-17T13:21:12.577Z,6.13
2022-08-17T13:23:39.090Z,5.37
2022-08-17T13:26:15.925Z,5.10
2022-08-17T13:28:51.607Z,6.37
2022-08-17T13:31:22.304Z,5.30
2022-08-17T13:33:48.806Z,5.00
2022-08-17T13:36:30.267Z,6.50
2022-08-17T13:39:15.009Z,5.37
2022-08-17T13:41:42.094Z,5.90
2022-08-17T13:44:30.541Z,5.70
2022-08-17T13:46:59.647Z,6.00
2022-08-17T13:49:41.553Z,5.80
2022-08-17T13:52:40.303Z,6.20
2022-08-17T13:55:21.239Z,5.37
2022-08-17T13:58:05.016Z,5.57
2022-08-17T14:00:36.418Z,5.67
2022-08-17T14:03:05.424Z,7.23
2022-08-17T14:05:32.496Z,5.40
2022-08-17T14:08:02.263Z,5.63
2022-08-17T14:10:35.826Z,5.77
2022-08-17T14:13:02.762Z,5.13
2022-08-17T14:15:55.245Z,5.20
2022-08-17T14:18:18.053Z,4.90
2022-08-17T14:21:04.685Z,5.30
2022-08-17T14:23:33.004Z,8.67
2022-08-17T14:25:59.835Z,4.63
2022-08-17T14:28:26.817Z,7.10
2022-08-17T14:30:54.597Z,4.47
2022-08-17T14:33:22.706Z,4.40
2022-08-17T14:35:53.756Z,4.40
2022-08-17T14:38:20.795Z,4.63
2022-08-17T14:40:49.440Z,6.40
2022-08-17T14:43:16.028Z,4.83
2022-08-17T14:45:43.142Z,4.77
2022-08-17T14:48:10.543Z,5.50
2022-08-17T14:50:40.614Z,4.90
2022-08-17T14:53:13.924Z,5.27
2022-08-17T14:55:40.786Z,6.20
2022-08-17T14:58:09.113Z,7.13
2022-08-17T15:00:39.460Z,4.57
2022-08-17T15:03:06.062Z,5.17
2022-08-17T15:05:36.583Z,5.43
2022-08-17T15:08:05.542Z,5.67
2022-08-17T15:10:33.002Z,23.30
2022-08-17T15:13:00.300Z,10.83
2022-08-17T15:15:27.792Z,5.07
2022-08-17T15:17:54.790Z,8.33
2022-08-17T15:20:28.016Z,5.00
2022-08-17T15:22:56.085Z,6.23
2022-08-17T15:25:24.356Z,6.43
2022-08-17T15:27:51.445Z,7.40
2022-08-17T15:30:18.835Z,5.50
2022-08-17T15:32:51.416Z,5.57
2022-08-17T15:35:27.945Z,7.00
2022-08-17T15:38:10.154Z,6.93
2022-08-17T15:40:41.455Z,6.07
2022-08-17T15:43:11.753Z,6.77
2022-08-17T15:45:39.474Z,10.87
2022-08-17T15:48:07.206Z,5.23
2022-08-17T15:50:33.844Z,5.50
2022-08-17T15:53:01.640Z,8.33
2022-08-17T15:55:30.432Z,6.97
2022-08-17T15:57:57.325Z,5.70
2022-08-17T16:00:24.165Z,5.60
2022-08-17T16:03:44.715Z,7.30
2022-08-17T16:05:40.704Z,5.93
2022-08-17T16:08:07.841Z,8.33
2022-08-17T16:10:35.991Z,6.50
2022-08-17T16:13:04.163Z,6.47
2022-08-17T16:15:31.917Z,6.37
2022-08-17T16:17:59.215Z,10.27
2022-08-17T16:20:26.354Z,6.97
2022-08-17T16:22:54.256Z,6.43
2022-08-17T16:25:50.344Z,8.73
2022-08-17T16:28:13.334Z,7.67
2022-08-17T16:30:41.270Z,6.50
2022-08-17T16:33:11.415Z,9.37
2022-08-17T16:35:38.345Z,6.63
2022-08-17T16:38:05.001Z,6.93
2022-08-17T16:40:35.829Z,7.63
2022-08-17T16:43:04.401Z,6.60
2022-08-17T16:45:36.808Z,9.93
2022-08-17T16:48:04.047Z,7.07
2022-08-17T16:50:32.309Z,8.17
2022-08-17T16:53:11.477Z,7.87
2022-08-17T16:55:38.521Z,8.00
2022-08-17T16:58:06.737Z,7.17
2022-08-17T17:00:33.758Z,14.03
2022-08-17T17:03:19.940Z,7.77
2022-08-17T17:06:06.314Z,7.27
2022-08-17T17:08:48.397Z,8.47
2022-08-17T17:11:23.087Z,12.10
2022-08-17T17:14:02.102Z,7.23
2022-08-17T17:16:28.617Z,8.33
2022-08-17T17:18:58.215Z,8.03
2022-08-17T17:21:35.739Z,9.20
2022-08-17T17:24:10.032Z,8.67
2022-08-17T17:27:07.312Z,6.70
2022-08-17T17:30:02.180Z,10.37
2022-08-17T17:32:54.613Z,7.57
2022-08-17T17:35:43.765Z,8.47
2022-08-17T17:38:21.432Z,7.90
2022-08-17T17:40:52.970Z,6.20
2022-08-17T17:43:38.835Z,7.07
2022-08-17T17:46:28.322Z,13.73
2022-08-17T17:48:57.449Z,7.57
2022-08-17T17:52:18.454Z,10.73
2022-08-17T17:54:55.002Z,7.40
2022-08-17T17:57:30.343Z,8.30
2022-08-17T18:00:08.694Z,10.87
2022-08-17T18:03:06.486Z,9.50
2022-08-17T18:05:39.415Z,8.03
2022-08-17T18:08:14.026Z,7.87
2022-08-17T18:10:49.250Z,9.73
2022-08-17T18:13:54.509Z,7.60
2022-08-17T18:16:21.363Z,9.30
2022-08-17T18:18:50.139Z,8.23
2022-08-17T18:21:25.314Z,9.43
2022-08-17T18:24:01.622Z,8.70
2022-08-17T18:26:36.740Z,8.70
2022-08-17T18:29:34.380Z,10.73
2022-08-17T18:32:16.241Z,12.07
2022-08-17T18:34:48.202Z,9.13
2022-08-17T18:37:31.999Z,17.50
2022-08-17T18:39:58.646Z,9.67
2022-08-17T18:42:29.118Z,4.73
2022-08-17T18:44:56.201Z,9.30
2022-08-17T18:47:28.625Z,6.50
2022-08-17T18:49:58.691Z,10.27
2022-08-17T18:52:33.195Z,9.03
2022-08-17T18:55:13.099Z,6.43
2022-08-17T18:57:43.502Z,8.70
2022-08-17T19:00:20.377Z,8.33
2022-08-17T19:02:57.329Z,10.57
2022-08-17T19:05:41.538Z,10.20
2022-08-17T19:08:35.542Z,7.10
2022-08-17T19:11:17.219Z,7.27
2022-08-17T19:13:55.630Z,6.37
2022-08-17T19:16:41.249Z,5.67
2022-08-17T19:19:17.004Z,5.10
2022-08-17T19:21:53.560Z,4.80
2022-08-17T19:24:23.602Z,6.10
2022-08-17T19:27:15.694Z,6.47
2022-08-17T19:29:50.829Z,5.43
2022-08-17T19:32:25.002Z,8.30
2022-08-17T19:34:52.279Z,9.23
2022-08-17T19:37:47.391Z,6.30
2022-08-17T19:41:11.264Z,7.07
2022-08-17T19:43:50.493Z,6.80
2022-08-17T19:46:35.608Z,7.67
2022-08-17T19:49:34.523Z,7.50
2022-08-17T19:52:28.080Z,8.63
2022-08-17T19:55:05.254Z,9.43
2022-08-17T19:57:50.561Z,10.17
2022-08-17T20:00:19.109Z,9.80
2022-08-17T20:03:16.177Z,10.23
2022-08-17T20:06:13.140Z,10.80
2022-08-17T20:08:59.061Z,11.40
2022-08-17T20:11:38.824Z,11.67
2022-08-17T20:14:13.733Z,11.20
2022-08-17T20:16:41.561Z,12.17
2022-08-17T20:19:12.576Z,12.30
2022-08-17T20:21:52.960Z,12.67
2022-08-17T20:24:28.631Z,13.90
2022-08-17T20:26:59.769Z,13.57
2022-08-17T20:29:40.141Z,13.33
2022-08-17T20:32:21.618Z,13.97
2022-08-17T20:34:48.390Z,13.70
2022-08-17T20:37:14.906Z,14.23
2022-08-17T20:39:41.390Z,15.93
2022-08-17T20:42:21.950Z,14.27
2022-08-17T20:44:57.647Z,15.43
2022-08-17T20:48:07.489Z,14.17
2022-08-17T20:50:45.110Z,15.57
2022-08-17T20:53:15.727Z,16.30
2022-08-17T20:55:51.635Z,15.10
2022-08-17T20:58:24.447Z,17.33
2022-08-17T21:00:57.825Z,17.40
2022-08-17T21:03:24.469Z,17.00
2022-08-17T21:05:59.875Z,17.57
2022-08-17T21:09:04.805Z,17.70
2022-08-17T21:12:03.462Z,17.20
2022-08-17T21:14:46.265Z,16.97
2022-08-17T21:17:38.220Z,18.17
2022-08-17T21:20:49.501Z,19.17
2022-08-17T21:23:28.131Z,17.20
2022-08-17T21:26:32.166Z,17.50
2022-08-17T21:29:29.508Z,17.70
2022-08-17T21:32:05.268Z,17.77
2022-08-17T21:34:44.239Z,17.73
2022-08-17T21:37:19.893Z,18.63
2022-08-17T21:40:00.620Z,20.50
2022-08-17T21:42:36.138Z,17.43
2022-08-17T21:45:18.220Z,19.20
2022-08-17T21:48:07.369Z,18.73
2022-08-17T21:50:35.645Z,17.80
2022-08-17T21:53:04.802Z,18.63
2022-08-17T21:55:33.205Z,18.67
2022-08-17T21:58:13.994Z,17.63
2022-08-17T22:00:44.358Z,20.70
2022-08-17T22:03:24.103Z,18.77
2022-08-17T22:05:51.586Z,18.53
2022-08-17T22:08:22.656Z,19.50
2022-08-17T22:10:51.365Z,18.23
2022-08-17T22:13:17.988Z,18.00
2022-08-17T22:15:50.792Z,19.47
2022-08-17T22:18:24.818Z,18.67
2022-08-17T22:20:57.941Z,18.60
2022-08-17T22:23:58.845Z,17.33
2022-08-17T22:26:47.187Z,17.53
2022-08-17T22:29:44.639Z,17.40
2022-08-17T22:32:29.313Z,18.23
2022-08-17T22:35:34.809Z,15.70
2022-08-17T22:38:19.480Z,15.67
2022-08-17T22:40:53.854Z,16.60
2022-08-17T22:43:26.606Z,16.20
2022-08-17T22:45:57.296Z,15.97
2022-08-17T22:48:27.915Z,16.40
2022-08-17T22:51:12.734Z,16.57
2022-08-17T22:54:09.126Z,18.00
2022-08-17T22:56:54.473Z,15.80
2022-08-17T22:59:45.875Z,17.00
2022-08-17T23:02:34.674Z,17.37
2022-08-17T23:05:11.727Z,17.40
2022-08-17T23:07:40.013Z,17.97
2022-08-17T23:10:09.624Z,18.13
2022-08-17T23:12:39.734Z,16.77
2022-08-17T23:15:18.991Z,16.80
2022-08-17T23:17:46.007Z,18.70
2022-08-17T23:20:15.315Z,16.63
2022-08-17T23:22:51.443Z,15.40
2022-08-17T23:25:27.085Z,17.97
2022-08-17T23:27:54.511Z,17.63
2022-08-17T23:30:23.225Z,18.37
2022-08-17T23:32:53.709Z,19.13
2022-08-17T23:35:39.683Z,16.73
2022-08-17T23:38:11.808Z,18.27
2022-08-17T23:40:39.368Z,18.33
2022-08-17T23:43:24.824Z,17.10
2022-08-17T23:45:57.973Z,18.23
2022-08-17T23:48:28.592Z,19.20
2022-08-17T23:51:09.772Z,19.10
2022-08-17T23:53:40.169Z,19.87
2022-08-17T23:56:11.503Z,17.73
2022-08-17T23:58:43.114Z,17.43
